Austinville, Virginia
Current Conditions -  °F | °C
As of 9:35 AM on Wednesday 22 Oct 2014 (Local Time) from KHLX Reporting Station
Overcast Overcast  
Wind Chill: 35°   Ceiling: 2000
Heat Index: 43°   Visibility: 10mi
Dew Point: 36°   Wind: 18mph
Humidity: 78%   Direction: 330°NNW
Pressure: 30.08"   Gusts: 23mph
Location:  36.85°N, 80.91°W
Report Text: KHLX 221335Z AUTO 33016G20KT 10SM OVC020 06/02 A3008 RMK AO2 T00600024
Loading
Personal Weather Stations






























Interactive Weather Map New forecast layout! Learn more

10-Day Weather Forecast

Advertisements
Track Severe Weather on mobile